< < Back
Terminal Aerodrome Forecast


Current Version              Previous Versions:   1  2  3  4  5  6  7  8  9  

Terminal Aerodrome Forecast

025
FTUS42 KTAE 302326
TAFABY
TAF
KABY 302326Z 3100/3124 26003KT P6SM FEW050
     FM310800 00000KT 4SM BR BKN025
     FM311000 00000KT 2SM BR OVC008
     FM311500 25009KT P6SM BKN040 PROB30 3118/3122 VRB15G25KT 3SM
      TSRA BKN025CB=



Latest METAR

198
SAUS70 KWBC 310600 RRF
MTRABY
METAR KABY 310553Z AUTO 24004KT 8SM FEW050 16/16 A3013 RMK AO2 SLP203
T01610156 10211 20150 58004


USA.gov is the U.S. government's official web portal to all federal, state and local government web resources and services.